Main page
METAR-TAF:

METAR-TAF

Airports :

Málaga Airport

Málaga, Spain

latitude: 36-40N, longitude: 004-29W, elevation: 16 m

Current weather observation

The report was made 21 minutes ago, at 20:00 UTC
Calm wind
Temperature 16°C
Humidity 82%
Pressure 1021 hPa
Visibility 10 km or more
Few clouds at a height of 3000 ft
Scattered clouds at a height of 6000 ft

METAR: LEMG 092000Z 00000KT 9999 FEW030 SCT060 16/13 Q1021 NOSIG

Time: 22:21 (20:21 UTC)

Forecast

The report was made 3 hours and 21 minutes ago, at 17:00 UTC
Forecast valid from 09 at 18 UTC to 10 at 18 UTC
Wind 3 kt from variable directions
Visibility 10 km or more
Scattered clouds at a height of 1800 ft
Scattered clouds at a height of 4000 ft
Becoming
from 09 at 21 UTC to 09 at 24 UTC
Wind 6 kt from the West
Becoming
from 10 at 09 UTC to 10 at 11 UTC
Wind 8 kt from the Southeast

TAF: LEMG 091700Z 0918/1018 VRB03KT 9999 SCT018 SCT040 TX19/1013Z TN13/1006Z BECMG 0921/0924 28006KT BECMG 1009/1011 13008KT

Weather observations and forecasts of more than 4000 airports (METAR and TAF reports).

The available stations are represented by yellow and red dots on the map.

Hover mouse over dot to see the name of the station.

Then click to see weather observations and forecasts.

To change the map : click on the green buttons with a black cross to zoom in, on the green button with a dash to zoom out, or on the green arrows for adjacent maps.


METAR-TAF: